Time;durP1;ratioP1;P1;durP2;ratioP2;P2;SDS_P1;SDS_P2;PMS_P1;PMS_P2;Temp;Humidity;BMP_temperature;BMP_pressure;BME280_temperature;BME280_humidity;BME280_pressure;Samples;Min_cycle;Max_cycle;Signal;HPM_P1;HPM_P2
2023/03/11 00:00:28;;;;;;;;;;;;;;;9.64;100.00;98253.72;5577091;31;33877;-64
2023/03/11 00:03:39;;;;;;;;;;;;;;;9.58;100.00;98247.44;5590774;31;34975;-63
2023/03/11 00:06:46;;;;;;;;;;;;;;;9.50;100.00;98253.00;5577482;31;34141;-65
2023/03/11 00:09:53;;;;;;;;;;;;;;;9.41;100.00;98253.47;5590851;31;34486;-66
2023/03/11 00:13:00;;;;;;;;;;;;;;;9.21;100.00;98252.75;5589854;31;34273;-65
2023/03/11 00:16:10;;;;;;;;;;;;;;;9.06;100.00;98245.91;5590673;31;34288;-64
2023/03/11 00:19:17;;;;;;;;;;;;;;;8.93;100.00;98248.59;5590071;31;34318;-64
2023/03/11 00:22:23;;;;;;;;;;;;;;;8.89;100.00;98236.00;5589850;31;34447;-66
2023/03/11 00:25:32;;;;;;;;;;;;;;;8.86;100.00;98233.78;5589590;31;33865;-66
2023/03/11 00:28:41;;;;;;;;;;;;;;;8.93;100.00;98231.91;5589914;31;34946;-66
2023/03/11 00:31:48;;;;;;;;;;;;;;;8.93;100.00;98235.38;5589687;31;32876;-65
2023/03/11 00:34:57;;;;;;;;;;;;;;;9.13;100.00;98238.75;5589396;31;34244;-66
2023/03/11 00:38:06;;;;;;;;;;;;;;;9.24;100.00;98242.56;5589811;31;34171;-66
2023/03/11 00:41:16;;;;;;;;;;;;;;;9.29;100.00;98239.28;5589883;31;34450;-65
2023/03/11 00:44:24;;;;;;;;;;;;;;;9.37;100.00;98242.50;5577244;31;34701;-65
2023/03/11 00:47:34;;;;;;;;;;;;;;;9.45;100.00;98225.53;5590414;31;34281;-63
2023/03/11 00:50:43;;;;;;;;;;;;;;;9.55;100.00;98232.00;5590242;31;34344;-64
2023/03/11 00:53:53;;;;;;;;;;;;;;;9.50;100.00;98239.78;5588920;31;34769;-64
2023/03/11 00:57:03;;;;;;;;;;;;;;;9.53;100.00;98244.66;5588972;31;34384;-64
2023/03/11 01:00:13;;;;;;;;;;;;;;;9.48;100.00;98230.44;5588782;31;34714;-63
2023/03/11 01:03:21;;;;;;;;;;;;;;;9.51;100.00;98232.66;5588739;31;34353;-64
2023/03/11 01:06:30;;;;;;;;;;;;;;;9.45;100.00;98244.06;5576537;31;34970;-63
2023/03/11 01:09:51;;;;;;;;;;;;;;;9.39;100.00;98247.59;5589334;31;33907;-64
2023/03/11 01:13:02;;;;;;;;;;;;;;;9.34;100.00;98244.75;5589450;31;34362;-64
2023/03/11 01:16:08;;;;;;;;;;;;;;;9.21;100.00;98232.41;5576277;31;34325;-64
2023/03/11 01:19:17;;;;;;;;;;;;;;;9.21;100.00;98226.28;5589565;31;33799;-64
2023/03/11 01:22:25;;;;;;;;;;;;;;;9.21;100.00;98237.69;5588381;31;33958;-64
2023/03/11 01:25:36;;;;;;;;;;;;;;;9.14;100.00;98219.22;5576042;31;33072;-65
2023/03/11 01:28:43;;;;;;;;;;;;;;;9.08;100.00;98220.06;5575488;31;35798;-64
2023/03/11 01:31:51;;;;;;;;;;;;;;;9.13;100.00;98212.31;5588714;31;34213;-64
2023/03/11 01:34:59;;;;;;;;;;;;;;;9.12;100.00;98215.97;5575898;31;34298;-64
2023/03/11 01:38:06;;;;;;;;;;;;;;;9.02;100.00;98228.81;5575896;31;34275;-64
2023/03/11 01:41:13;;;;;;;;;;;;;;;8.92;100.00;98225.81;5588649;31;34412;-64
2023/03/11 01:44:22;;;;;;;;;;;;;;;8.86;100.00;98231.16;5589063;31;34687;-64
2023/03/11 01:47:38;;;;;;;;;;;;;;;8.97;100.00;98223.34;5575032;31;32766;-65
2023/03/11 01:50:49;;;;;;;;;;;;;;;8.95;100.00;98198.16;5588250;31;33713;-65
2023/03/11 01:53:56;;;;;;;;;;;;;;;9.02;99.95;98193.63;5588373;31;34900;-65
2023/03/11 01:57:07;;;;;;;;;;;;;;;9.13;97.18;98207.00;5588005;31;33988;-64
2023/03/11 02:00:17;;;;;;;;;;;;;;;9.10;96.04;98202.13;5588499;31;34242;-64
2023/03/11 02:03:30;;;;;;;;;;;;;;;9.07;93.71;98207.84;5587803;31;34344;-65
2023/03/11 02:06:41;;;;;;;;;;;;;;;9.03;94.77;98216.41;5588445;31;34670;-65
2023/03/11 02:09:51;;;;;;;;;;;;;;;9.01;94.76;98235.13;5589016;31;34145;-64
2023/03/11 02:12:59;;;;;;;;;;;;;;;8.97;96.17;98233.13;5589133;31;34425;-64
2023/03/11 02:16:06;;;;;;;;;;;;;;;9.04;90.86;98237.38;5588922;31;34872;-65
2023/03/11 02:19:22;;;;;;;;;;;;;;;9.11;88.10;98232.84;5589739;31;34965;-65
2023/03/11 02:22:34;;;;;;;;;;;;;;;9.15;87.28;98236.69;5589754;31;34150;-65
2023/03/11 02:26:04;;;;;;;;;;;;;;;9.09;86.79;98237.56;5589669;31;34456;-64
2023/03/11 02:29:11;;;;;;;;;;;;;;;9.13;86.52;98232.66;5589429;31;35232;-64
2023/03/11 02:32:20;;;;;;;;;;;;;;;9.09;86.59;98229.62;5588850;31;34373;-64
2023/03/11 02:35:30;;;;;;;;;;;;;;;9.00;88.57;98227.44;5588777;31;35518;-64
2023/03/11 02:38:40;;;;;;;;;;;;;;;9.01;86.84;98232.47;5576111;31;32803;-65
2023/03/11 02:41:47;;;;;;;;;;;;;;;9.00;84.85;98227.44;5575662;31;35470;-64
2023/03/11 02:45:00;;;;;;;;;;;;;;;9.04;84.83;98241.84;5588541;31;34044;-64
2023/03/11 02:48:09;;;;;;;;;;;;;;;9.02;84.27;98230.66;5588651;31;34132;-65
2023/03/11 02:51:18;;;;;;;;;;;;;;;9.01;84.23;98248.34;5588686;31;34902;-63
2023/03/11 02:54:27;;;;;;;;;;;;;;;9.00;84.77;98230.88;5587314;31;35245;-65
2023/03/11 02:57:38;;;;;;;;;;;;;;;8.97;83.38;98233.13;5588952;31;33856;-65
2023/03/11 03:00:46;;;;;;;;;;;;;;;8.92;83.60;98241.69;5587853;31;35208;-64
2023/03/11 03:03:58;;;;;;;;;;;;;;;8.92;84.74;98243.50;5588412;31;34269;-65
2023/03/11 03:07:08;;;;;;;;;;;;;;;8.89;82.28;98249.22;5588398;31;34142;-64
2023/03/11 03:10:18;;;;;;;;;;;;;;;8.96;82.66;98255.28;5588335;31;34176;-65
2023/03/11 03:13:27;;;;;;;;;;;;;;;8.91;83.13;98258.56;5588060;31;33939;-65
2023/03/11 03:16:38;;;;;;;;;;;;;;;8.87;82.21;98257.34;5588263;31;34275;-64
2023/03/11 03:19:47;;;;;;;;;;;;;;;8.87;81.87;98265.28;5589117;31;34275;-65
2023/03/11 03:22:54;;;;;;;;;;;;;;;8.86;82.54;98271.59;5575760;31;34167;-65
2023/03/11 03:26:03;;;;;;;;;;;;;;;8.87;82.17;98259.19;5587985;31;34821;-65
2023/03/11 03:29:18;;;;;;;;;;;;;;;8.93;80.53;98267.09;5587964;31;34237;-65
2023/03/11 03:32:28;;;;;;;;;;;;;;;9.00;78.90;98278.50;5588535;31;34633;-64
2023/03/11 03:35:42;;;;;;;;;;;;;;;9.03;77.00;98271.97;5587941;31;34873;-65
2023/03/11 03:38:54;;;;;;;;;;;;;;;9.07;74.12;98273.16;5574776;31;33280;-64
2023/03/11 03:42:05;;;;;;;;;;;;;;;9.14;69.07;98298.56;5587368;31;33434;-64
2023/03/11 03:45:19;;;;;;;;;;;;;;;9.11;68.86;98279.66;5575465;31;34142;-64
2023/03/11 03:48:30;;;;;;;;;;;;;;;9.08;67.15;98261.56;5588383;31;34310;-63
2023/03/11 03:51:41;;;;;;;;;;;;;;;8.97;65.71;98238.41;5587603;31;33801;-64
2023/03/11 03:54:51;;;;;;;;;;;;;;;8.96;63.97;98292.31;5587297;31;33939;-64
2023/03/11 03:58:00;;;;;;;;;;;;;;;8.85;62.91;98296.44;5587346;31;33833;-63
2023/03/11 04:01:10;;;;;;;;;;;;;;;8.77;62.25;98280.78;5588127;31;34154;-63
2023/03/11 04:04:18;;;;;;;;;;;;;;;8.66;61.72;98299.94;5574545;31;34223;-64
2023/03/11 04:07:26;;;;;;;;;;;;;;;8.55;62.77;98303.19;5586848;31;34166;-63
2023/03/11 04:10:33;;;;;;;;;;;;;;;8.44;64.12;98309.09;5589360;31;34155;-64
2023/03/11 04:13:43;;;;;;;;;;;;;;;8.35;65.40;98305.03;5590037;31;34293;-63
2023/03/11 04:16:56;;;;;;;;;;;;;;;8.22;66.71;98327.78;5590116;31;33183;-64
2023/03/11 04:20:09;;;;;;;;;;;;;;;8.18;66.00;98339.72;5577243;31;35234;-64
2023/03/11 04:23:20;;;;;;;;;;;;;;;8.09;67.25;98355.97;5590285;31;34329;-63
2023/03/11 04:26:30;;;;;;;;;;;;;;;8.07;67.72;98347.47;5590759;31;34418;-63
2023/03/11 04:29:42;;;;;;;;;;;;;;;8.00;67.32;98360.63;5577710;31;33561;-64
2023/03/11 04:32:49;;;;;;;;;;;;;;;7.96;66.51;98362.06;5577149;31;34739;-63
2023/03/11 04:35:57;;;;;;;;;;;;;;;7.93;66.58;98356.38;5590527;31;34583;-63
2023/03/11 04:39:05;;;;;;;;;;;;;;;7.84;68.29;98363.66;5590694;31;33804;-64
2023/03/11 04:42:13;;;;;;;;;;;;;;;7.82;63.29;98379.69;5589389;31;35331;-62
2023/03/11 04:45:19;;;;;;;;;;;;;;;7.85;56.34;98418.06;5577159;31;34464;-63
2023/03/11 04:48:30;;;;;;;;;;;;;;;7.79;49.87;98361.59;5577261;31;34339;-63
2023/03/11 04:51:40;;;;;;;;;;;;;;;7.64;48.23;98391.81;5577465;31;34260;-63
2023/03/11 04:54:49;;;;;;;;;;;;;;;7.43;48.85;98375.09;5590479;31;34253;-62
2023/03/11 04:57:58;;;;;;;;;;;;;;;7.31;48.96;98360.03;5590263;31;34952;-62
2023/03/11 05:01:07;;;;;;;;;;;;;;;7.24;48.97;98386.34;5576632;31;34647;-65
2023/03/11 05:04:15;;;;;;;;;;;;;;;7.14;49.89;98379.81;5590300;31;34266;-64
2023/03/11 05:07:24;;;;;;;;;;;;;;;7.06;50.79;98408.97;5589464;31;35677;-62
2023/03/11 05:10:31;;;;;;;;;;;;;;;6.97;52.79;98410.94;5589475;31;34343;-63
2023/03/11 05:13:43;;;;;;;;;;;;;;;6.91;53.80;98403.81;5577336;31;32957;-62
2023/03/11 05:16:51;;;;;;;;;;;;;;;6.83;52.93;98402.13;5589424;31;34309;-62
2023/03/11 05:20:06;;;;;;;;;;;;;;;6.72;54.24;98434.28;5589444;31;32955;-63
2023/03/11 05:23:14;;;;;;;;;;;;;;;6.65;55.15;98388.59;5590209;31;34334;-63
2023/03/11 05:26:30;;;;;;;;;;;;;;;6.60;53.69;98419.97;5590156;31;34147;-63
2023/03/11 05:29:40;;;;;;;;;;;;;;;6.51;55.43;98411.41;5589238;31;35054;-62
2023/03/11 05:32:48;;;;;;;;;;;;;;;6.45;55.54;98413.97;5589130;31;34190;-63
2023/03/11 05:36:09;;;;;;;;;;;;;;;6.45;53.84;98406.06;5588987;31;35665;-64
2023/03/11 05:39:17;;;;;;;;;;;;;;;6.36;54.25;98421.19;5589285;31;34414;-63
2023/03/11 05:42:24;;;;;;;;;;;;;;;6.29;53.31;98437.94;5590051;31;34187;-63
2023/03/11 05:45:34;;;;;;;;;;;;;;;6.23;53.32;98444.78;5589167;31;33807;-63
2023/03/11 05:48:41;;;;;;;;;;;;;;;6.07;53.86;98440.56;5589909;31;34216;-64
2023/03/11 05:51:52;;;;;;;;;;;;;;;6.01;53.81;98453.63;5588989;31;33520;-63
2023/03/11 05:55:04;;;;;;;;;;;;;;;6.01;53.80;98486.03;5589017;31;34338;-63
2023/03/11 05:58:11;;;;;;;;;;;;;;;5.98;53.55;98461.91;5589671;31;34337;-63
2023/03/11 06:01:20;;;;;;;;;;;;;;;6.00;55.00;98475.72;5576316;31;33987;-63
2023/03/11 06:04:28;;;;;;;;;;;;;;;6.01;54.63;98461.53;5589024;31;34269;-63
2023/03/11 06:07:35;;;;;;;;;;;;;;;5.97;55.25;98474.25;5588989;31;34832;-63
2023/03/11 06:10:46;;;;;;;;;;;;;;;5.84;52.17;98467.97;5589402;31;34343;-63
2023/03/11 06:13:57;;;;;;;;;;;;;;;5.75;53.30;98471.72;5589195;31;34825;-64
2023/03/11 06:17:08;;;;;;;;;;;;;;;5.79;53.32;98472.97;5588927;31;34375;-63
2023/03/11 06:20:15;;;;;;;;;;;;;;;5.74;52.75;98467.44;5588751;31;33324;-63
2023/03/11 06:23:21;;;;;;;;;;;;;;;5.76;53.93;98479.41;5589676;31;33155;-63
2023/03/11 06:26:33;;;;;;;;;;;;;;;5.79;52.70;98488.75;5588861;31;34388;-63
2023/03/11 06:29:43;;;;;;;;;;;;;;;5.88;53.98;98500.84;5588704;31;34300;-63
2023/03/11 06:32:53;;;;;;;;;;;;;;;5.82;52.44;98501.53;5588830;31;34984;-63
2023/03/11 06:36:02;;;;;;;;;;;;;;;5.84;51.88;98533.78;5589501;31;34100;-63
2023/03/11 06:39:11;;;;;;;;;;;;;;;5.80;52.55;98520.16;5588552;31;34905;-63
2023/03/11 06:42:19;;;;;;;;;;;;;;;5.77;52.59;98538.13;5588474;31;34500;-63
2023/03/11 06:45:30;;;;;;;;;;;;;;;5.78;53.02;98552.91;5589241;31;34362;-63
2023/03/11 06:48:38;;;;;;;;;;;;;;;5.72;53.57;98524.69;5588302;31;32781;-62
2023/03/11 06:51:44;;;;;;;;;;;;;;;5.67;53.09;98538.37;5588581;31;34880;-63
2023/03/11 06:54:52;;;;;;;;;;;;;;;5.58;52.24;98558.72;5589280;31;34825;-63
2023/03/11 06:57:58;;;;;;;;;;;;;;;5.63;53.09;98566.06;5588814;31;34373;-63
2023/03/11 07:01:07;;;;;;;;;;;;;;;5.64;52.16;98565.06;5588890;31;34351;-63
2023/03/11 07:04:17;;;;;;;;;;;;;;;5.70;52.62;98564.34;5589161;31;34527;-63
2023/03/11 07:07:27;;;;;;;;;;;;;;;5.51;52.99;98559.63;5588927;31;34892;-63
2023/03/11 07:10:36;;;;;;;;;;;;;;;5.44;53.45;98577.09;5587956;31;34430;-64
2023/03/11 07:13:44;;;;;;;;;;;;;;;5.48;52.25;98555.53;5588899;31;34486;-63
2023/03/11 07:16:51;;;;;;;;;;;;;;;5.36;52.91;98600.84;5588767;31;34282;-63
2023/03/11 07:20:02;;;;;;;;;;;;;;;5.30;51.97;98551.59;5588164;31;34328;-63
2023/03/11 07:23:09;;;;;;;;;;;;;;;5.24;53.20;98566.28;5587865;31;35071;-63
2023/03/11 07:26:19;;;;;;;;;;;;;;;5.34;53.00;98563.38;5587892;31;34255;-64
2023/03/11 07:29:25;;;;;;;;;;;;;;;5.36;51.21;98595.59;5588423;31;34426;-63
2023/03/11 07:32:35;;;;;;;;;;;;;;;5.16;52.96;98564.53;5587900;31;34632;-63
2023/03/11 07:35:44;;;;;;;;;;;;;;;5.27;53.52;98580.88;5587744;31;34912;-64
2023/03/11 07:38:58;;;;;;;;;;;;;;;5.35;53.79;98578.19;5588466;31;34910;-63
2023/03/11 07:42:07;;;;;;;;;;;;;;;5.45;52.77;98566.41;5587733;31;35384;-63
2023/03/11 07:45:14;;;;;;;;;;;;;;;5.54;52.03;98583.75;5589701;31;35068;-62
2023/03/11 07:48:20;;;;;;;;;;;;;;;5.71;51.33;98580.97;5590745;31;33992;-63
2023/03/11 07:51:27;;;;;;;;;;;;;;;5.93;51.35;98588.78;5589934;31;33585;-63
2023/03/11 07:54:34;;;;;;;;;;;;;;;5.93;50.70;98612.47;5590542;31;34277;-64
2023/03/11 07:57:41;;;;;;;;;;;;;;;5.72;48.81;98590.47;5590438;31;34958;-63
2023/03/11 08:00:49;;;;;;;;;;;;;;;5.72;50.24;98603.59;5590378;31;34724;-64
2023/03/11 08:03:58;;;;;;;;;;;;;;;5.69;50.21;98618.78;5590554;31;34852;-63
2023/03/11 08:07:05;;;;;;;;;;;;;;;5.69;50.32;98639.00;5590618;31;34254;-64
2023/03/11 08:10:13;;;;;;;;;;;;;;;5.82;50.33;98626.03;5589805;31;34310;-64
2023/03/11 08:13:21;;;;;;;;;;;;;;;5.88;49.30;98645.59;5590613;31;34230;-64
2023/03/11 08:16:32;;;;;;;;;;;;;;;5.75;49.44;98640.94;5589564;31;35220;-64
2023/03/11 08:19:39;;;;;;;;;;;;;;;6.15;49.32;98617.84;5590193;31;34190;-63
2023/03/11 08:22:45;;;;;;;;;;;;;;;6.29;48.67;98662.59;5590281;31;34812;-63
2023/03/11 08:26:03;;;;;;;;;;;;;;;6.48;49.85;98663.84;5590361;31;34394;-63
2023/03/11 08:29:11;;;;;;;;;;;;;;;7.85;46.04;98698.72;5590122;31;34853;-64
2023/03/11 08:32:18;;;;;;;;;;;;;;;7.02;47.39;98708.28;5589003;31;34820;-63
2023/03/11 08:35:31;;;;;;;;;;;;;;;6.39;49.36;98744.75;5589242;31;35449;-63
2023/03/11 08:38:37;;;;;;;;;;;;;;;6.30;50.11;98735.31;5589289;31;34962;-63
2023/03/11 08:41:44;;;;;;;;;;;;;;;7.29;47.43;98732.12;5590446;31;34258;-63
2023/03/11 08:44:51;;;;;;;;;;;;;;;6.90;48.89;98753.56;5590131;31;34870;-63
2023/03/11 08:48:00;;;;;;;;;;;;;;;6.38;49.28;98734.44;5589918;31;33990;-63
2023/03/11 08:51:10;;;;;;;;;;;;;;;6.91;48.46;98710.41;5589478;31;34303;-63
2023/03/11 08:54:17;;;;;;;;;;;;;;;7.33;46.94;98691.16;5589044;31;33233;-63
2023/03/11 08:57:24;;;;;;;;;;;;;;;7.52;47.14;98704.72;5589524;31;34292;-62
2023/03/11 09:00:33;;;;;;;;;;;;;;;7.15;47.30;98711.88;5590129;31;34751;-64
2023/03/11 09:03:41;;;;;;;;;;;;;;;6.85;48.89;98694.50;5590318;31;34350;-63
2023/03/11 09:06:49;;;;;;;;;;;;;;;6.71;47.64;98676.91;5590008;31;34238;-63
2023/03/11 09:09:56;;;;;;;;;;;;;;;6.49;47.42;98692.63;5589879;31;34212;-64
2023/03/11 09:13:05;;;;;;;;;;;;;;;6.31;48.00;98659.75;5589081;31;34151;-62
2023/03/11 09:16:18;;;;;;;;;;;;;;;6.43;49.09;98701.28;5588888;31;34451;-64
2023/03/11 09:19:26;;;;;;;;;;;;;;;6.39;48.93;98694.72;5588075;31;34308;-63
2023/03/11 09:22:34;;;;;;;;;;;;;;;6.32;49.09;98709.62;5589675;31;34361;-63
2023/03/11 09:25:44;;;;;;;;;;;;;;;6.06;49.66;98711.84;5589858;31;34300;-64
2023/03/11 09:28:55;;;;;;;;;;;;;;;6.00;49.35;98723.13;5589493;31;34330;-64
2023/03/11 09:32:06;;;;;;;;;;;;;;;6.07;50.27;98724.84;5589343;31;34592;-65
2023/03/11 09:35:13;;;;;;;;;;;;;;;6.24;50.27;98732.59;5589524;31;34912;-64
2023/03/11 09:38:20;;;;;;;;;;;;;;;6.51;51.00;98721.44;5589461;31;34427;-64
2023/03/11 09:41:33;;;;;;;;;;;;;;;6.35;50.55;98732.94;5589555;31;34683;-64
2023/03/11 09:44:56;;;;;;;;;;;;;;;6.05;51.82;98718.94;5589573;31;34193;-64
2023/03/11 09:48:20;;;;;;;;;;;;;;;6.31;52.10;98715.88;5588642;31;34924;-63
2023/03/11 09:51:33;;;;;;;;;;;;;;;6.37;50.96;98725.69;5589340;31;35148;-63
2023/03/11 09:54:43;;;;;;;;;;;;;;;6.29;51.78;98730.25;5589228;31;34443;-63
2023/03/11 09:57:52;;;;;;;;;;;;;;;6.12;51.46;98737.47;5589271;31;34185;-63
2023/03/11 10:01:01;;;;;;;;;;;;;;;6.14;51.33;98698.63;5589349;31;34344;-64
2023/03/11 10:04:11;;;;;;;;;;;;;;;5.97;52.52;98692.69;5588463;31;34267;-63
2023/03/11 10:07:21;;;;;;;;;;;;;;;5.98;53.04;98698.78;5588149;31;34353;-63
2023/03/11 10:10:32;;;;;;;;;;;;;;;5.78;52.76;98716.03;5589488;31;34413;-65
2023/03/11 10:13:53;;;;;;;;;;;;;;;5.66;52.50;98713.81;5589662;31;34560;-63
2023/03/11 10:17:05;;;;;;;;;;;;;;;5.53;52.24;98705.72;5588854;31;34233;-63
2023/03/11 10:20:11;;;;;;;;;;;;;;;5.44;52.75;98719.09;5589359;31;34383;-64
2023/03/11 10:23:25;;;;;;;;;;;;;;;5.41;53.20;98722.91;5589023;31;34951;-63
2023/03/11 10:26:35;;;;;;;;;;;;;;;5.34;54.75;98734.28;5589344;31;34772;-63
2023/03/11 10:29:49;;;;;;;;;;;;;;;5.39;55.21;98751.19;5588881;31;34789;-63
2023/03/11 10:32:54;;;;;;;;;;;;;;;5.45;54.92;98752.31;5588908;31;35367;-63
2023/03/11 10:36:11;;;;;;;;;;;;;;;5.52;56.32;98748.78;5588786;31;34394;-65
2023/03/11 10:39:16;;;;;;;;;;;;;;;5.57;54.71;98764.88;5587936;31;34335;-64
2023/03/11 10:42:28;;;;;;;;;;;;;;;5.76;54.84;98789.87;5588822;31;33980;-65
2023/03/11 10:45:39;;;;;;;;;;;;;;;5.94;53.35;98771.22;5587872;31;34342;-63
2023/03/11 10:48:45;;;;;;;;;;;;;;;6.36;53.05;98784.62;5588000;31;34277;-63
2023/03/11 10:51:53;;;;;;;;;;;;;;;6.50;51.39;98789.09;5588600;31;34568;-64
2023/03/11 10:55:01;;;;;;;;;;;;;;;6.43;52.21;98790.00;5587789;31;34584;-62
2023/03/11 10:58:12;;;;;;;;;;;;;;;6.42;53.34;98793.62;5588473;31;34997;-63
2023/03/11 11:01:20;;;;;;;;;;;;;;;6.44;53.42;98784.53;5587871;31;34318;-63
2023/03/11 11:04:29;;;;;;;;;;;;;;;6.48;53.12;98800.84;5587573;31;34500;-63
2023/03/11 11:07:40;;;;;;;;;;;;;;;6.34;53.32;98807.69;5588280;31;34260;-63
2023/03/11 11:11:01;;;;;;;;;;;;;;;5.84;54.10;98791.66;5588380;31;34726;-62
2023/03/11 11:14:08;;;;;;;;;;;;;;;6.08;52.74;98802.03;5587987;31;34416;-63
2023/03/11 11:17:19;;;;;;;;;;;;;;;6.02;53.85;98821.16;5588402;31;34909;-63
2023/03/11 11:20:28;;;;;;;;;;;;;;;6.17;53.75;98811.47;5590771;31;34252;-65
2023/03/11 11:23:49;;;;;;;;;;;;;;;6.20;52.31;98805.03;5590519;31;34624;-64
2023/03/11 11:27:02;;;;;;;;;;;;;;;6.08;52.94;98825.72;5590585;31;34444;-63
2023/03/11 11:30:09;;;;;;;;;;;;;;;5.86;53.32;98824.69;5576622;31;33039;-63
2023/03/11 11:33:26;;;;;;;;;;;;;;;6.06;52.10;98823.25;5590524;31;34129;-63
2023/03/11 11:36:35;;;;;;;;;;;;;;;6.14;52.20;98816.28;5590721;31;34919;-65
2023/03/11 11:39:50;;;;;;;;;;;;;;;6.19;53.05;98819.22;5589675;31;34791;-63
2023/03/11 11:43:02;;;;;;;;;;;;;;;6.11;53.64;98825.34;5590517;31;34232;-63
2023/03/11 11:46:10;;;;;;;;;;;;;;;6.10;52.87;98819.25;5590740;31;34763;-63
2023/03/11 11:49:22;;;;;;;;;;;;;;;6.16;53.32;98812.47;5590536;31;34329;-63
2023/03/11 11:52:30;;;;;;;;;;;;;;;6.46;52.53;98816.81;5590314;31;34326;-64
2023/03/11 11:55:38;;;;;;;;;;;;;;;6.72;51.09;98829.56;5590559;31;34110;-65
2023/03/11 11:58:43;;;;;;;;;;;;;;;6.48;51.13;98816.62;5589809;31;34476;-65
2023/03/11 12:01:57;;;;;;;;;;;;;;;7.04;50.78;98823.09;5589622;31;34745;-63
2023/03/11 12:05:13;;;;;;;;;;;;;;;7.24;49.46;98826.81;5590736;31;35414;-64
2023/03/11 12:08:34;;;;;;;;;;;;;;;6.80;49.97;98833.91;5590507;31;34579;-64
2023/03/11 12:11:44;;;;;;;;;;;;;;;6.36;49.99;98823.31;5590149;31;34131;-64
2023/03/11 12:15:12;;;;;;;;;;;;;;;6.39;50.37;98834.31;5590534;31;34381;-63
2023/03/11 12:18:25;;;;;;;;;;;;;;;6.59;49.78;98778.47;5590373;31;34251;-62
2023/03/11 12:21:41;;;;;;;;;;;;;;;6.49;49.45;98829.59;5590098;31;34581;-63
2023/03/11 12:25:23;;;;;;;;;;;;;;;6.05;50.62;98812.91;5590133;31;34721;-64
2023/03/11 12:28:31;;;;;;;;;;;;;;;6.40;50.56;98828.06;5510424;32;34272;-67
2023/03/11 12:31:39;;;;;;;;;;;;;;;6.85;49.19;98856.09;5510318;32;35640;-63
2023/03/11 12:34:44;;;;;;;;;;;;;;;7.70;47.22;98834.41;5510778;32;34182;-63
2023/03/11 12:38:03;;;;;;;;;;;;;;;7.28;47.61;98832.53;5510923;32;34749;-63
2023/03/11 12:41:13;;;;;;;;;;;;;;;7.08;47.88;98827.00;5498177;32;34814;-65
2023/03/11 12:44:21;;;;;;;;;;;;;;;8.70;45.90;98856.28;5510680;32;34832;-63
2023/03/11 12:47:27;;;;;;;;;;;;;;;10.19;41.62;98866.91;5498107;32;33281;-64
2023/03/11 12:50:38;;;;;;;;;;;;;;;10.64;40.35;98865.31;5510698;32;34201;-64
2023/03/11 12:53:46;;;;;;;;;;;;;;;11.00;39.54;98851.56;5510437;32;34491;-64
2023/03/11 12:56:54;;;;;;;;;;;;;;;10.31;41.00;98875.09;5497860;32;34075;-64
2023/03/11 13:00:17;;;;;;;;;;;;;;;11.05;39.41;98866.88;5510574;32;34215;-64
2023/03/11 13:03:44;;;;;;;;;;;;;;;8.55;43.19;98896.03;5582353;31;35022;-63
2023/03/11 13:07:06;;;;;;;;;;;;;;;7.13;47.14;98889.75;5589420;31;34279;-62
2023/03/11 13:10:19;;;;;;;;;;;;;;;6.84;46.97;98880.81;5589415;31;34288;-64
2023/03/11 13:13:30;;;;;;;;;;;;;;;6.51;48.95;98911.09;5588730;31;34464;-63
2023/03/11 13:16:38;;;;;;;;;;;;;;;6.96;47.65;98907.56;5576830;31;33913;-65
2023/03/11 13:19:48;;;;;;;;;;;;;;;7.03;47.76;98910.28;5589372;31;34330;-64
2023/03/11 13:22:57;;;;;;;;;;;;;;;6.56;47.91;98914.03;5576862;31;34331;-65
2023/03/11 13:26:33;;;;;;;;;;;;;;;6.57;48.28;98917.50;5589338;31;34169;-63
2023/03/11 13:30:01;;;;;;;;;;;;;;;6.32;48.24;98911.59;5585531;31;33899;-64
2023/03/11 13:33:10;;;;;;;;;;;;;;;6.23;48.91;98925.81;5576789;31;33326;-63
2023/03/11 13:36:24;;;;;;;;;;;;;;;6.07;49.25;98909.13;5589724;31;35583;-63
2023/03/11 13:39:59;;;;;;;;;;;;;;;6.12;49.67;98932.31;5589111;31;32370;-65
2023/03/11 13:43:13;;;;;;;;;;;;;;;6.01;50.07;98937.97;5583877;31;34792;-63
2023/03/11 13:46:26;;;;;;;;;;;;;;;6.14;50.22;98961.09;5588961;31;33012;-63
2023/03/11 13:49:55;;;;;;;;;;;;;;;6.21;50.51;98925.97;5589000;31;34232;-67
2023/03/11 13:53:07;;;;;;;;;;;;;;;7.56;47.77;98954.84;5588507;31;33358;-63
2023/03/11 13:56:21;;;;;;;;;;;;;;;9.05;43.85;98942.56;5588976;31;33258;-63
2023/03/11 13:59:31;;;;;;;;;;;;;;;7.57;46.35;98960.97;5589641;31;34319;-63
2023/03/11 14:02:43;;;;;;;;;;;;;;;6.96;48.45;98970.84;5576415;31;33089;-63
2023/03/11 14:06:04;;;;;;;;;;;;;;;6.63;49.13;98991.38;5589706;31;34267;-63
2023/03/11 14:09:17;;;;;;;;;;;;;;;6.35;49.11;99000.78;5588931;31;35121;-66
2023/03/11 14:12:31;;;;;;;;;;;;;;;6.24;48.54;99004.66;5588750;31;35458;-64
2023/03/11 14:15:51;;;;;;;;;;;;;;;6.16;49.19;99007.31;5576770;31;33189;-64
2023/03/11 14:19:11;;;;;;;;;;;;;;;6.10;49.31;99015.91;5576359;31;34244;-63
2023/03/11 14:22:17;;;;;;;;;;;;;;;6.13;49.34;99002.41;5576592;31;34950;-63
2023/03/11 14:25:27;;;;;;;;;;;;;;;6.14;49.68;98998.78;5588926;31;34250;-62
2023/03/11 14:28:33;;;;;;;;;;;;;;;6.08;49.70;99024.00;5589237;31;34785;-64
2023/03/11 14:31:42;;;;;;;;;;;;;;;6.03;49.34;99038.66;5589297;31;35291;-63
2023/03/11 14:34:52;;;;;;;;;;;;;;;5.94;50.26;99039.69;5588768;31;34146;-63
2023/03/11 14:38:19;;;;;;;;;;;;;;;6.02;50.13;99037.00;5589214;31;35537;-63
2023/03/11 14:41:27;;;;;;;;;;;;;;;5.81;50.22;99044.66;5589007;31;35721;-62
2023/03/11 14:44:38;;;;;;;;;;;;;;;5.52;50.98;99061.78;5589195;31;34846;-63
2023/03/11 14:47:49;;;;;;;;;;;;;;;5.55;50.62;99035.19;5588887;31;34254;-64
2023/03/11 14:50:58;;;;;;;;;;;;;;;5.45;50.84;99046.88;5587986;31;34347;-63
2023/03/11 14:54:10;;;;;;;;;;;;;;;5.55;51.19;99045.69;5588201;31;34389;-63
2023/03/11 14:57:23;;;;;;;;;;;;;;;5.82;50.46;99054.16;5588315;31;34886;-64
2023/03/11 15:00:38;;;;;;;;;;;;;;;6.03;50.05;99068.44;5588593;31;34931;-62
2023/03/11 15:03:46;;;;;;;;;;;;;;;5.81;50.44;99065.69;5588701;31;34826;-64
2023/03/11 15:06:55;;;;;;;;;;;;;;;5.81;50.38;99092.81;5588596;31;34984;-63
2023/03/11 15:10:07;;;;;;;;;;;;;;;5.68;50.91;99076.72;5588672;31;34187;-63
2023/03/11 15:13:14;;;;;;;;;;;;;;;5.74;50.73;99094.47;5587587;31;34931;-63
2023/03/11 15:16:24;;;;;;;;;;;;;;;5.71;50.94;99083.47;5587889;31;34806;-64
2023/03/11 15:19:33;;;;;;;;;;;;;;;5.71;50.25;99104.53;5588105;31;34329;-63
2023/03/11 15:22:43;;;;;;;;;;;;;;;5.45;50.22;99117.87;5587566;31;34831;-63
2023/03/11 15:25:49;;;;;;;;;;;;;;;5.43;51.21;99118.03;5588067;31;34320;-62
2023/03/11 15:28:59;;;;;;;;;;;;;;;5.39;50.91;99127.25;5587063;31;33941;-63
2023/03/11 15:32:29;;;;;;;;;;;;;;;5.45;51.17;99123.97;5587314;31;35220;-64
2023/03/11 15:35:45;;;;;;;;;;;;;;;5.50;50.55;99142.69;5587969;31;34186;-64
2023/03/11 15:39:25;;;;;;;;;;;;;;;5.35;50.20;99104.91;5587169;31;34846;-64
2023/03/11 15:42:36;;;;;;;;;;;;;;;5.37;50.22;99110.00;5556546;31;34732;-63
2023/03/11 15:45:44;;;;;;;;;;;;;;;5.32;50.39;99136.81;5587756;31;34528;-63
2023/03/11 15:48:52;;;;;;;;;;;;;;;5.29;51.16;99141.53;5587588;31;34181;-64
2023/03/11 15:52:01;;;;;;;;;;;;;;;5.22;51.59;99136.97;5587618;31;34222;-64
2023/03/11 15:55:09;;;;;;;;;;;;;;;5.29;51.48;99150.25;5587629;31;34167;-64
2023/03/11 15:58:20;;;;;;;;;;;;;;;5.19;51.11;99145.16;5586794;31;33997;-64
2023/03/11 16:01:28;;;;;;;;;;;;;;;5.20;50.12;99164.38;5587354;31;34228;-64
2023/03/11 16:04:36;;;;;;;;;;;;;;;5.22;50.12;99175.56;5588078;31;34461;-63
2023/03/11 16:07:43;;;;;;;;;;;;;;;5.32;50.29;99176.25;5590539;31;34163;-63
2023/03/11 16:10:52;;;;;;;;;;;;;;;5.36;49.47;99188.06;5590307;31;34182;-65
2023/03/11 16:14:00;;;;;;;;;;;;;;;5.28;50.30;99209.09;5590720;31;35049;-64
2023/03/11 16:17:08;;;;;;;;;;;;;;;5.26;50.01;99195.28;5590342;31;34989;-63
2023/03/11 16:20:18;;;;;;;;;;;;;;;5.12;49.44;99170.47;5590482;31;33805;-63
2023/03/11 16:23:26;;;;;;;;;;;;;;;5.01;50.26;99197.06;5589630;31;34911;-62
2023/03/11 16:26:36;;;;;;;;;;;;;;;4.94;48.99;99208.37;5590158;31;34893;-63
2023/03/11 16:29:45;;;;;;;;;;;;;;;4.90;48.64;99209.66;5589566;31;34786;-63
2023/03/11 16:32:53;;;;;;;;;;;;;;;4.84;48.57;99210.31;5590167;31;34605;-63
2023/03/11 16:36:01;;;;;;;;;;;;;;;4.79;49.09;99211.59;5589360;31;34285;-63
2023/03/11 16:39:09;;;;;;;;;;;;;;;4.75;48.47;99217.34;5590412;31;34871;-64
2023/03/11 16:42:21;;;;;;;;;;;;;;;4.70;49.20;99230.94;5590165;31;34996;-63